sensor_id;sensor_type;location;lat;lon;timestamp;pressure;altitude;pressure_sealevel;temperature;humidity
46876;BME280;32866;50.160;14.768;2023-06-26T00:01:06;99510.13;;;15.72;100.00
46876;BME280;32866;50.160;14.768;2023-06-26T00:03:33;99507.97;;;15.67;100.00
46876;BME280;32866;50.160;14.768;2023-06-26T00:05:59;99504.63;;;15.63;100.00
46876;BME280;32866;50.160;14.768;2023-06-26T00:08:26;99505.84;;;15.62;100.00
46876;BME280;32866;50.160;14.768;2023-06-26T00:10:52;99500.69;;;15.54;100.00
46876;BME280;32866;50.160;14.768;2023-06-26T00:13:18;99502.69;;;15.54;100.00
46876;BME280;32866;50.160;14.768;2023-06-26T00:15:44;99500.97;;;15.56;100.00
46876;BME280;32866;50.160;14.768;2023-06-26T00:18:10;99506.50;;;15.56;100.00
46876;BME280;32866;50.160;14.768;2023-06-26T00:20:36;99504.22;;;15.55;100.00
46876;BME280;32866;50.160;14.768;2023-06-26T00:23:02;99504.38;;;15.51;100.00
46876;BME280;32866;50.160;14.768;2023-06-26T00:25:33;99505.97;;;15.43;100.00
46876;BME280;32866;50.160;14.768;2023-06-26T00:27:59;99507.84;;;15.37;100.00
46876;BME280;32866;50.160;14.768;2023-06-26T00:30:25;99505.72;;;15.32;100.00
46876;BME280;32866;50.160;14.768;2023-06-26T00:32:50;99507.84;;;15.37;100.00
46876;BME280;32866;50.160;14.768;2023-06-26T00:35:16;99504.19;;;15.31;100.00
46876;BME280;32866;50.160;14.768;2023-06-26T00:37:42;99501.13;;;15.29;100.00
46876;BME280;32866;50.160;14.768;2023-06-26T00:40:08;99502.53;;;15.24;100.00
46876;BME280;32866;50.160;14.768;2023-06-26T00:42:34;99508.09;;;15.15;100.00
46876;BME280;32866;50.160;14.768;2023-06-26T00:45:00;99501.81;;;15.14;100.00
46876;BME280;32866;50.160;14.768;2023-06-26T00:47:26;99498.94;;;15.09;100.00
46876;BME280;32866;50.160;14.768;2023-06-26T00:49:52;99504.00;;;15.01;100.00
46876;BME280;32866;50.160;14.768;2023-06-26T00:52:20;99501.88;;;14.96;100.00
46876;BME280;32866;50.160;14.768;2023-06-26T00:54:46;99497.28;;;14.93;100.00
46876;BME280;32866;50.160;14.768;2023-06-26T00:57:12;99500.97;;;14.90;100.00
46876;BME280;32866;50.160;14.768;2023-06-26T00:59:37;99499.47;;;14.89;100.00
46876;BME280;32866;50.160;14.768;2023-06-26T01:02:03;99500.09;;;14.83;100.00
46876;BME280;32866;50.160;14.768;2023-06-26T01:04:29;99503.16;;;14.86;100.00
46876;BME280;32866;50.160;14.768;2023-06-26T01:06:58;99498.56;;;14.82;100.00
46876;BME280;32866;50.160;14.768;2023-06-26T01:09:24;99491.66;;;14.78;100.00
46876;BME280;32866;50.160;14.768;2023-06-26T01:11:51;99500.88;;;14.75;100.00
46876;BME280;32866;50.160;14.768;2023-06-26T01:14:17;99497.34;;;14.74;100.00
46876;BME280;32866;50.160;14.768;2023-06-26T01:16:43;99495.06;;;14.73;100.00
46876;BME280;32866;50.160;14.768;2023-06-26T01:19:19;99496.13;;;14.75;100.00
46876;BME280;32866;50.160;14.768;2023-06-26T01:22:02;99490.31;;;14.73;100.00
46876;BME280;32866;50.160;14.768;2023-06-26T01:24:34;99480.97;;;14.71;100.00
46876;BME280;32866;50.160;14.768;2023-06-26T01:27:02;99483.88;;;14.67;100.00
46876;BME280;32866;50.160;14.768;2023-06-26T01:29:29;99485.44;;;14.59;100.00
46876;BME280;32866;50.160;14.768;2023-06-26T01:31:56;99487.28;;;14.34;100.00
46876;BME280;32866;50.160;14.768;2023-06-26T01:34:22;99484.25;;;14.14;100.00
46876;BME280;32866;50.160;14.768;2023-06-26T01:36:48;99470.31;;;14.08;100.00
46876;BME280;32866;50.160;14.768;2023-06-26T01:39:15;99472.16;;;14.20;100.00
46876;BME280;32866;50.160;14.768;2023-06-26T01:41:41;99476.59;;;14.36;100.00
46876;BME280;32866;50.160;14.768;2023-06-26T01:51:35;99474.72;;;14.42;100.00
46876;BME280;32866;50.160;14.768;2023-06-26T01:54:01;99471.50;;;14.53;100.00
46876;BME280;32866;50.160;14.768;2023-06-26T01:56:28;99470.75;;;14.43;100.00
46876;BME280;32866;50.160;14.768;2023-06-26T01:58:54;99466.31;;;14.27;100.00
46876;BME280;32866;50.160;14.768;2023-06-26T02:01:21;99463.13;;;14.10;100.00
46876;BME280;32866;50.160;14.768;2023-06-26T02:03:47;99468.63;;;14.10;100.00
46876;BME280;32866;50.160;14.768;2023-06-26T02:06:13;99463.91;;;14.11;100.00
46876;BME280;32866;50.160;14.768;2023-06-26T02:08:39;99459.16;;;14.12;100.00
46876;BME280;32866;50.160;14.768;2023-06-26T02:11:05;99453.94;;;14.14;100.00
46876;BME280;32866;50.160;14.768;2023-06-26T02:13:31;99451.97;;;14.05;100.00
46876;BME280;32866;50.160;14.768;2023-06-26T02:15:56;99456.53;;;13.99;100.00
46876;BME280;32866;50.160;14.768;2023-06-26T02:18:22;99455.94;;;13.95;100.00
46876;BME280;32866;50.160;14.768;2023-06-26T02:20:48;99446.59;;;13.92;100.00
46876;BME280;32866;50.160;14.768;2023-06-26T02:23:14;99449.06;;;13.90;100.00
46876;BME280;32866;50.160;14.768;2023-06-26T02:25:40;99450.28;;;13.98;100.00
46876;BME280;32866;50.160;14.768;2023-06-26T02:28:06;99450.56;;;14.00;100.00
46876;BME280;32866;50.160;14.768;2023-06-26T02:30:32;99452.72;;;13.96;100.00
46876;BME280;32866;50.160;14.768;2023-06-26T02:32:57;99448.13;;;14.02;100.00
46876;BME280;32866;50.160;14.768;2023-06-26T02:35:23;99454.69;;;13.96;100.00
46876;BME280;32866;50.160;14.768;2023-06-26T02:37:49;99457.59;;;13.73;100.00
46876;BME280;32866;50.160;14.768;2023-06-26T02:40:15;99453.91;;;13.58;100.00
46876;BME280;32866;50.160;14.768;2023-06-26T02:42:41;99461.84;;;13.47;100.00
46876;BME280;32866;50.160;14.768;2023-06-26T02:45:07;99452.03;;;13.36;100.00
46876;BME280;32866;50.160;14.768;2023-06-26T02:47:33;99454.03;;;13.45;100.00
46876;BME280;32866;50.160;14.768;2023-06-26T02:49:59;99453.75;;;13.43;100.00
46876;BME280;32866;50.160;14.768;2023-06-26T02:52:24;99448.69;;;13.42;100.00
46876;BME280;32866;50.160;14.768;2023-06-26T02:54:50;99450.22;;;13.43;100.00
46876;BME280;32866;50.160;14.768;2023-06-26T02:57:16;99452.69;;;13.41;100.00
46876;BME280;32866;50.160;14.768;2023-06-26T02:59:42;99453.13;;;13.48;100.00
46876;BME280;32866;50.160;14.768;2023-06-26T03:02:08;99446.41;;;13.59;100.00
46876;BME280;32866;50.160;14.768;2023-06-26T03:04:34;99451.16;;;13.58;100.00
46876;BME280;32866;50.160;14.768;2023-06-26T03:07:03;99443.22;;;13.51;100.00
46876;BME280;32866;50.160;14.768;2023-06-26T03:09:29;99446.56;;;13.55;100.00
46876;BME280;32866;50.160;14.768;2023-06-26T03:11:54;99447.19;;;13.68;100.00
46876;BME280;32866;50.160;14.768;2023-06-26T03:14:21;99447.22;;;13.78;100.00
46876;BME280;32866;50.160;14.768;2023-06-26T03:16:47;99457.47;;;13.96;100.00
46876;BME280;32866;50.160;14.768;2023-06-26T03:19:13;99452.09;;;13.92;100.00
46876;BME280;32866;50.160;14.768;2023-06-26T03:21:38;99451.78;;;13.99;100.00
46876;BME280;32866;50.160;14.768;2023-06-26T03:24:04;99453.16;;;14.04;100.00
46876;BME280;32866;50.160;14.768;2023-06-26T03:26:30;99455.78;;;13.98;100.00
46876;BME280;32866;50.160;14.768;2023-06-26T03:28:56;99459.75;;;13.97;100.00
46876;BME280;32866;50.160;14.768;2023-06-26T03:31:22;99464.81;;;13.99;100.00
46876;BME280;32866;50.160;14.768;2023-06-26T03:33:48;99468.31;;;13.99;100.00
46876;BME280;32866;50.160;14.768;2023-06-26T03:36:13;99468.19;;;14.03;100.00
46876;BME280;32866;50.160;14.768;2023-06-26T03:38:39;99458.53;;;14.07;100.00
46876;BME280;32866;50.160;14.768;2023-06-26T03:41:05;99461.44;;;14.13;100.00
46876;BME280;32866;50.160;14.768;2023-06-26T03:43:31;99460.34;;;14.10;100.00
46876;BME280;32866;50.160;14.768;2023-06-26T03:45:56;99460.97;;;14.24;100.00
46876;BME280;32866;50.160;14.768;2023-06-26T03:48:22;99465.22;;;14.34;100.00
46876;BME280;32866;50.160;14.768;2023-06-26T03:50:48;99461.84;;;14.39;100.00
46876;BME280;32866;50.160;14.768;2023-06-26T03:53:14;99460.75;;;14.46;100.00
46876;BME280;32866;50.160;14.768;2023-06-26T03:55:40;99459.84;;;14.49;100.00
46876;BME280;32866;50.160;14.768;2023-06-26T03:58:06;99462.91;;;14.51;100.00
46876;BME280;32866;50.160;14.768;2023-06-26T04:00:32;99466.72;;;14.54;100.00
46876;BME280;32866;50.160;14.768;2023-06-26T04:02:57;99469.63;;;14.69;100.00
46876;BME280;32866;50.160;14.768;2023-06-26T04:05:23;99472.81;;;14.76;100.00
46876;BME280;32866;50.160;14.768;2023-06-26T04:07:50;99467.41;;;14.91;100.00
46876;BME280;32866;50.160;14.768;2023-06-26T04:10:16;99465.66;;;15.03;100.00
46876;BME280;32866;50.160;14.768;2023-06-26T04:12:41;99466.91;;;15.02;100.00
46876;BME280;32866;50.160;14.768;2023-06-26T04:15:07;99470.88;;;15.10;100.00
46876;BME280;32866;50.160;14.768;2023-06-26T04:17:33;99472.34;;;15.20;100.00
46876;BME280;32866;50.160;14.768;2023-06-26T04:19:59;99476.22;;;15.38;100.00
46876;BME280;32866;50.160;14.768;2023-06-26T04:22:25;99478.97;;;15.47;100.00
46876;BME280;32866;50.160;14.768;2023-06-26T04:24:51;99478.41;;;15.58;100.00
46876;BME280;32866;50.160;14.768;2023-06-26T04:27:17;99476.66;;;15.70;100.00
46876;BME280;32866;50.160;14.768;2023-06-26T04:29:43;99479.38;;;15.79;100.00
46876;BME280;32866;50.160;14.768;2023-06-26T04:32:09;99477.63;;;15.91;100.00
46876;BME280;32866;50.160;14.768;2023-06-26T04:34:35;99475.47;;;16.10;100.00
46876;BME280;32866;50.160;14.768;2023-06-26T04:37:02;99479.56;;;16.14;100.00
46876;BME280;32866;50.160;14.768;2023-06-26T04:39:30;99484.91;;;16.18;100.00
46876;BME280;32866;50.160;14.768;2023-06-26T04:41:56;99479.00;;;16.25;100.00
46876;BME280;32866;50.160;14.768;2023-06-26T04:44:21;99475.88;;;16.32;100.00
46876;BME280;32866;50.160;14.768;2023-06-26T04:46:47;99474.28;;;16.41;100.00
46876;BME280;32866;50.160;14.768;2023-06-26T04:49:13;99471.00;;;16.57;100.00
46876;BME280;32866;50.160;14.768;2023-06-26T04:51:39;99466.81;;;16.77;100.00
46876;BME280;32866;50.160;14.768;2023-06-26T04:54:08;99467.22;;;16.84;100.00
46876;BME280;32866;50.160;14.768;2023-06-26T04:56:34;99463.53;;;17.08;100.00
46876;BME280;32866;50.160;14.768;2023-06-26T04:59:00;99464.50;;;17.05;100.00
46876;BME280;32866;50.160;14.768;2023-06-26T05:01:25;99453.53;;;16.96;100.00
46876;BME280;32866;50.160;14.768;2023-06-26T05:03:54;99460.16;;;17.19;100.00
46876;BME280;32866;50.160;14.768;2023-06-26T05:06:19;99456.16;;;16.84;100.00
46876;BME280;32866;50.160;14.768;2023-06-26T05:08:45;99460.25;;;17.24;100.00
46876;BME280;32866;50.160;14.768;2023-06-26T05:11:11;99459.38;;;17.54;100.00
46876;BME280;32866;50.160;14.768;2023-06-26T05:13:37;99458.00;;;17.64;100.00
46876;BME280;32866;50.160;14.768;2023-06-26T05:16:02;99468.97;;;17.94;100.00
46876;BME280;32866;50.160;14.768;2023-06-26T05:18:28;99463.97;;;18.24;100.00
46876;BME280;32866;50.160;14.768;2023-06-26T05:20:54;99462.56;;;18.08;100.00
46876;BME280;32866;50.160;14.768;2023-06-26T05:23:20;99458.78;;;18.32;100.00
46876;BME280;32866;50.160;14.768;2023-06-26T05:25:47;99470.44;;;18.15;100.00
46876;BME280;32866;50.160;14.768;2023-06-26T05:28:12;99468.56;;;18.53;100.00
46876;BME280;32866;50.160;14.768;2023-06-26T05:30:40;99455.59;;;18.77;100.00
46876;BME280;32866;50.160;14.768;2023-06-26T05:33:06;99454.25;;;18.93;100.00
46876;BME280;32866;50.160;14.768;2023-06-26T05:35:36;99452.63;;;19.18;100.00
46876;BME280;32866;50.160;14.768;2023-06-26T05:38:01;99452.34;;;19.10;100.00
46876;BME280;32866;50.160;14.768;2023-06-26T05:40:27;99461.47;;;19.65;100.00
46876;BME280;32866;50.160;14.768;2023-06-26T05:42:53;99446.38;;;19.28;100.00
46876;BME280;32866;50.160;14.768;2023-06-26T05:45:19;99446.63;;;19.25;100.00
46876;BME280;32866;50.160;14.768;2023-06-26T05:47:45;99442.03;;;19.22;100.00
46876;BME280;32866;50.160;14.768;2023-06-26T05:50:12;99448.69;;;18.93;100.00
46876;BME280;32866;50.160;14.768;2023-06-26T05:52:38;99436.56;;;19.39;100.00
46876;BME280;32866;50.160;14.768;2023-06-26T05:55:04;99451.06;;;19.05;100.00
46876;BME280;32866;50.160;14.768;2023-06-26T05:57:30;99445.41;;;19.92;100.00
46876;BME280;32866;50.160;14.768;2023-06-26T05:59:56;99450.59;;;20.67;100.00
46876;BME280;32866;50.160;14.768;2023-06-26T06:02:22;99449.81;;;20.55;100.00
46876;BME280;32866;50.160;14.768;2023-06-26T06:04:48;99441.34;;;21.45;100.00
46876;BME280;32866;50.160;14.768;2023-06-26T06:07:14;99443.34;;;22.09;100.00
46876;BME280;32866;50.160;14.768;2023-06-26T06:09:40;99443.25;;;21.73;100.00
46876;BME280;32866;50.160;14.768;2023-06-26T06:12:06;99447.50;;;21.16;100.00
46876;BME280;32866;50.160;14.768;2023-06-26T06:14:32;99445.94;;;21.31;100.00
46876;BME280;32866;50.160;14.768;2023-06-26T06:16:58;99438.81;;;21.47;100.00
46876;BME280;32866;50.160;14.768;2023-06-26T06:19:24;99439.03;;;21.61;100.00
46876;BME280;32866;50.160;14.768;2023-06-26T06:21:50;99445.16;;;21.48;100.00
46876;BME280;32866;50.160;14.768;2023-06-26T06:24:15;99440.00;;;21.69;100.00
46876;BME280;32866;50.160;14.768;2023-06-26T06:26:41;99441.06;;;21.43;100.00
46876;BME280;32866;50.160;14.768;2023-06-26T06:29:07;99435.75;;;22.04;100.00
46876;BME280;32866;50.160;14.768;2023-06-26T06:31:33;99442.31;;;22.12;100.00
46876;BME280;32866;50.160;14.768;2023-06-26T06:33:58;99441.09;;;22.02;100.00
46876;BME280;32866;50.160;14.768;2023-06-26T06:36:24;99443.13;;;21.37;100.00
46876;BME280;32866;50.160;14.768;2023-06-26T06:38:50;99438.66;;;21.81;100.00
46876;BME280;32866;50.160;14.768;2023-06-26T06:41:16;99447.91;;;22.12;100.00
46876;BME280;32866;50.160;14.768;2023-06-26T06:43:42;99448.06;;;21.78;100.00
46876;BME280;32866;50.160;14.768;2023-06-26T06:46:08;99446.28;;;22.28;100.00
46876;BME280;32866;50.160;14.768;2023-06-26T06:48:34;99444.25;;;22.59;100.00
46876;BME280;32866;50.160;14.768;2023-06-26T06:51:00;99443.13;;;22.73;100.00
46876;BME280;32866;50.160;14.768;2023-06-26T06:53:25;99445.06;;;22.54;100.00
46876;BME280;32866;50.160;14.768;2023-06-26T06:55:51;99449.28;;;22.96;100.00
46876;BME280;32866;50.160;14.768;2023-06-26T06:58:17;99449.66;;;23.12;100.00
46876;BME280;32866;50.160;14.768;2023-06-26T07:00:45;99442.19;;;23.45;100.00
46876;BME280;32866;50.160;14.768;2023-06-26T07:03:11;99437.13;;;23.62;100.00
46876;BME280;32866;50.160;14.768;2023-06-26T07:05:37;99432.84;;;23.99;100.00
46876;BME280;32866;50.160;14.768;2023-06-26T07:08:02;99441.50;;;23.82;100.00
46876;BME280;32866;50.160;14.768;2023-06-26T07:10:28;99433.13;;;24.15;100.00
46876;BME280;32866;50.160;14.768;2023-06-26T07:12:54;99432.94;;;24.77;100.00
46876;BME280;32866;50.160;14.768;2023-06-26T07:15:20;99432.75;;;25.55;100.00
46876;BME280;32866;50.160;14.768;2023-06-26T07:17:46;99425.13;;;26.46;100.00
46876;BME280;32866;50.160;14.768;2023-06-26T07:20:12;99423.47;;;27.58;100.00
46876;BME280;32866;50.160;14.768;2023-06-26T07:22:41;99419.56;;;28.21;100.00
46876;BME280;32866;50.160;14.768;2023-06-26T07:25:07;99408.69;;;28.33;96.86
46876;BME280;32866;50.160;14.768;2023-06-26T07:27:36;99407.97;;;26.99;100.00
46876;BME280;32866;50.160;14.768;2023-06-26T07:30:02;99404.88;;;27.99;96.09
46876;BME280;32866;50.160;14.768;2023-06-26T07:32:28;99408.50;;;28.84;92.81
46876;BME280;32866;50.160;14.768;2023-06-26T07:34:53;99399.06;;;29.13;91.05
46876;BME280;32866;50.160;14.768;2023-06-26T07:37:19;99410.28;;;29.36;88.15
46876;BME280;32866;50.160;14.768;2023-06-26T07:39:45;99395.66;;;29.30;81.09
46876;BME280;32866;50.160;14.768;2023-06-26T07:42:11;99401.00;;;28.72;81.06
46876;BME280;32866;50.160;14.768;2023-06-26T07:44:37;99396.13;;;28.64;84.61
46876;BME280;32866;50.160;14.768;2023-06-26T07:47:02;99394.88;;;29.37;78.26
46876;BME280;32866;50.160;14.768;2023-06-26T07:49:29;99396.06;;;29.67;78.14
46876;BME280;32866;50.160;14.768;2023-06-26T07:51:54;99392.91;;;30.54;82.73
46876;BME280;32866;50.160;14.768;2023-06-26T07:54:20;99388.63;;;30.45;76.10
46876;BME280;32866;50.160;14.768;2023-06-26T07:56:56;99397.84;;;30.20;72.80
46876;BME280;32866;50.160;14.768;2023-06-26T07:59:22;99390.94;;;30.39;71.54
46876;BME280;32866;50.160;14.768;2023-06-26T08:01:49;99383.56;;;31.03;70.71
46876;BME280;32866;50.160;14.768;2023-06-26T08:04:15;99390.47;;;31.28;65.88
46876;BME280;32866;50.160;14.768;2023-06-26T08:06:41;99386.91;;;31.10;62.39
46876;BME280;32866;50.160;14.768;2023-06-26T08:09:07;99393.25;;;30.00;65.38
46876;BME280;32866;50.160;14.768;2023-06-26T08:11:36;99388.09;;;31.69;63.58
46876;BME280;32866;50.160;14.768;2023-06-26T08:14:02;99380.94;;;31.05;61.62
46876;BME280;32866;50.160;14.768;2023-06-26T08:16:28;99383.88;;;31.60;62.15
46876;BME280;32866;50.160;14.768;2023-06-26T08:18:54;99385.28;;;32.33;56.08
46876;BME280;32866;50.160;14.768;2023-06-26T08:21:19;99377.75;;;31.81;57.05
46876;BME280;32866;50.160;14.768;2023-06-26T08:23:45;99373.69;;;31.74;56.80
46876;BME280;32866;50.160;14.768;2023-06-26T08:26:12;99374.38;;;32.20;56.88
46876;BME280;32866;50.160;14.768;2023-06-26T08:28:38;99368.84;;;31.67;54.99
46876;BME280;32866;50.160;14.768;2023-06-26T08:31:04;99371.47;;;32.57;57.90
46876;BME280;32866;50.160;14.768;2023-06-26T08:33:30;99365.06;;;30.85;56.59
46876;BME280;32866;50.160;14.768;2023-06-26T08:35:56;99360.78;;;31.19;56.16
46876;BME280;32866;50.160;14.768;2023-06-26T08:38:21;99363.94;;;31.95;54.01
46876;BME280;32866;50.160;14.768;2023-06-26T08:40:47;99364.25;;;31.99;55.13
46876;BME280;32866;50.160;14.768;2023-06-26T08:43:13;99358.31;;;30.45;57.51
46876;BME280;32866;50.160;14.768;2023-06-26T08:45:39;99355.28;;;31.03;56.98
46876;BME280;32866;50.160;14.768;2023-06-26T08:48:07;99353.97;;;31.67;56.87
46876;BME280;32866;50.160;14.768;2023-06-26T08:50:33;99354.66;;;31.57;55.65
46876;BME280;32866;50.160;14.768;2023-06-26T08:53:03;99344.22;;;31.87;56.58
46876;BME280;32866;50.160;14.768;2023-06-26T08:55:30;99338.16;;;32.28;53.38
46876;BME280;32866;50.160;14.768;2023-06-26T08:57:57;99344.25;;;31.97;54.34
46876;BME280;32866;50.160;14.768;2023-06-26T09:00:23;99342.63;;;31.22;53.44
46876;BME280;32866;50.160;14.768;2023-06-26T09:02:49;99341.66;;;32.65;50.41
46876;BME280;32866;50.160;14.768;2023-06-26T09:05:14;99333.63;;;32.71;53.13
46876;BME280;32866;50.160;14.768;2023-06-26T09:07:40;99337.56;;;31.65;51.43
46876;BME280;32866;50.160;14.768;2023-06-26T09:10:06;99332.56;;;31.11;53.63
46876;BME280;32866;50.160;14.768;2023-06-26T09:12:32;99336.47;;;30.13;55.15
46876;BME280;32866;50.160;14.768;2023-06-26T09:14:59;99341.91;;;29.93;58.58
46876;BME280;32866;50.160;14.768;2023-06-26T09:17:25;99336.72;;;30.32;57.46
46876;BME280;32866;50.160;14.768;2023-06-26T09:19:51;99327.16;;;30.88;58.30
46876;BME280;32866;50.160;14.768;2023-06-26T09:22:18;99328.53;;;30.19;56.51
46876;BME280;32866;50.160;14.768;2023-06-26T09:24:44;99329.38;;;30.29;55.57
46876;BME280;32866;50.160;14.768;2023-06-26T09:27:10;99334.88;;;30.70;58.02
46876;BME280;32866;50.160;14.768;2023-06-26T09:29:36;99324.34;;;31.05;58.96
46876;BME280;32866;50.160;14.768;2023-06-26T09:32:03;99317.75;;;30.85;55.70
46876;BME280;32866;50.160;14.768;2023-06-26T09:34:32;99317.00;;;31.65;57.31
46876;BME280;32866;50.160;14.768;2023-06-26T09:36:58;99314.69;;;30.91;54.69
46876;BME280;32866;50.160;14.768;2023-06-26T09:39:24;99309.97;;;32.03;55.20
46876;BME280;32866;50.160;14.768;2023-06-26T09:41:50;99306.50;;;31.85;52.04
46876;BME280;32866;50.160;14.768;2023-06-26T09:44:16;99316.09;;;31.62;51.08
46876;BME280;32866;50.160;14.768;2023-06-26T09:46:44;99302.69;;;30.83;53.09
46876;BME280;32866;50.160;14.768;2023-06-26T09:49:10;99305.16;;;31.31;53.66
46876;BME280;32866;50.160;14.768;2023-06-26T09:51:37;99304.88;;;31.54;46.99
46876;BME280;32866;50.160;14.768;2023-06-26T09:54:03;99299.09;;;31.99;46.57
46876;BME280;32866;50.160;14.768;2023-06-26T09:56:30;99298.84;;;31.77;50.92
46876;BME280;32866;50.160;14.768;2023-06-26T09:58:56;99289.19;;;32.17;44.14
46876;BME280;32866;50.160;14.768;2023-06-26T10:01:23;99289.50;;;32.22;45.07
46876;BME280;32866;50.160;14.768;2023-06-26T10:03:49;99278.56;;;32.65;44.13
46876;BME280;32866;50.160;14.768;2023-06-26T10:06:15;99279.69;;;32.42;43.87
46876;BME280;32866;50.160;14.768;2023-06-26T10:08:44;99272.81;;;32.35;42.65
46876;BME280;32866;50.160;14.768;2023-06-26T10:11:11;99275.59;;;32.16;44.29
46876;BME280;32866;50.160;14.768;2023-06-26T10:13:39;99266.25;;;32.33;43.46
46876;BME280;32866;50.160;14.768;2023-06-26T10:16:07;99275.66;;;32.35;43.53
46876;BME280;32866;50.160;14.768;2023-06-26T10:18:34;99258.41;;;31.94;41.78
46876;BME280;32866;50.160;14.768;2023-06-26T10:21:02;99260.09;;;31.43;43.65
46876;BME280;32866;50.160;14.768;2023-06-26T10:23:28;99268.00;;;31.44;42.88
46876;BME280;32866;50.160;14.768;2023-06-26T10:25:57;99259.00;;;31.93;44.08
46876;BME280;32866;50.160;14.768;2023-06-26T10:28:23;99248.00;;;31.05;43.70
46876;BME280;32866;50.160;14.768;2023-06-26T10:30:50;99245.47;;;31.10;43.05
46876;BME280;32866;50.160;14.768;2023-06-26T10:33:17;99248.13;;;30.90;42.82
46876;BME280;32866;50.160;14.768;2023-06-26T10:35:43;99244.84;;;30.66;44.70
46876;BME280;32866;50.160;14.768;2023-06-26T10:38:10;99246.00;;;30.63;44.05
46876;BME280;32866;50.160;14.768;2023-06-26T10:40:43;99244.00;;;30.74;48.09
46876;BME280;32866;50.160;14.768;2023-06-26T10:43:11;99243.13;;;31.16;47.83
46876;BME280;32866;50.160;14.768;2023-06-26T10:45:45;99236.63;;;31.23;48.49
46876;BME280;32866;50.160;14.768;2023-06-26T10:48:14;99237.25;;;31.31;48.40
46876;BME280;32866;50.160;14.768;2023-06-26T10:50:41;99234.09;;;31.27;44.44
46876;BME280;32866;50.160;14.768;2023-06-26T10:53:10;99228.09;;;31.50;48.20
46876;BME280;32866;50.160;14.768;2023-06-26T10:55:37;99224.88;;;31.54;43.10
46876;BME280;32866;50.160;14.768;2023-06-26T10:58:03;99232.09;;;31.74;45.35
46876;BME280;32866;50.160;14.768;2023-06-26T11:00:29;99222.56;;;31.15;44.27
46876;BME280;32866;50.160;14.768;2023-06-26T11:02:54;99222.09;;;31.36;45.01
46876;BME280;32866;50.160;14.768;2023-06-26T11:05:24;99217.16;;;31.37;47.87
46876;BME280;32866;50.160;14.768;2023-06-26T11:08:03;99214.50;;;31.66;46.93
46876;BME280;32866;50.160;14.768;2023-06-26T11:10:29;99213.84;;;32.05;51.22
46876;BME280;32866;50.160;14.768;2023-06-26T11:12:55;99207.50;;;31.77;43.92
46876;BME280;32866;50.160;14.768;2023-06-26T11:15:24;99213.72;;;32.12;42.52
46876;BME280;32866;50.160;14.768;2023-06-26T11:17:50;99208.66;;;32.11;41.30
46876;BME280;32866;50.160;14.768;2023-06-26T11:20:16;99204.34;;;32.39;41.60
46876;BME280;32866;50.160;14.768;2023-06-26T11:22:43;99209.72;;;32.25;41.10
46876;BME280;32866;50.160;14.768;2023-06-26T11:25:09;99210.03;;;32.20;41.83
46876;BME280;32866;50.160;14.768;2023-06-26T11:30:07;99200.63;;;32.17;43.96
46876;BME280;32866;50.160;14.768;2023-06-26T11:32:33;99206.69;;;32.04;41.50
46876;BME280;32866;50.160;14.768;2023-06-26T11:34:59;99197.03;;;32.55;45.43
46876;BME280;32866;50.160;14.768;2023-06-26T11:37:25;99200.63;;;32.66;41.21
46876;BME280;32866;50.160;14.768;2023-06-26T11:39:51;99198.84;;;32.80;43.44
46876;BME280;32866;50.160;14.768;2023-06-26T11:42:17;99195.72;;;32.57;42.76
46876;BME280;32866;50.160;14.768;2023-06-26T11:44:43;99189.41;;;32.87;41.21
46876;BME280;32866;50.160;14.768;2023-06-26T11:47:13;99193.31;;;32.72;40.42
46876;BME280;32866;50.160;14.768;2023-06-26T11:49:41;99179.91;;;32.63;42.70
46876;BME280;32866;50.160;14.768;2023-06-26T11:52:07;99182.44;;;33.30;42.67
46876;BME280;32866;50.160;14.768;2023-06-26T11:54:33;99179.78;;;33.53;42.59
46876;BME280;32866;50.160;14.768;2023-06-26T11:56:59;99169.88;;;33.74;40.34
46876;BME280;32866;50.160;14.768;2023-06-26T11:59:33;99175.09;;;33.68;43.11
46876;BME280;32866;50.160;14.768;2023-06-26T12:01:59;99176.44;;;33.67;40.52
46876;BME280;32866;50.160;14.768;2023-06-26T12:04:25;99177.03;;;33.43;40.10
46876;BME280;32866;50.160;14.768;2023-06-26T12:06:52;99163.66;;;33.87;38.88
46876;BME280;32866;50.160;14.768;2023-06-26T12:09:22;99172.50;;;33.81;37.29
46876;BME280;32866;50.160;14.768;2023-06-26T12:11:51;99176.50;;;33.57;37.65
46876;BME280;32866;50.160;14.768;2023-06-26T12:14:17;99163.13;;;34.00;36.99
46876;BME280;32866;50.160;14.768;2023-06-26T12:16:45;99166.16;;;33.93;37.39
46876;BME280;32866;50.160;14.768;2023-06-26T12:19:10;99162.50;;;33.80;37.30
46876;BME280;32866;50.160;14.768;2023-06-26T12:24:02;99154.38;;;34.08;38.22
46876;BME280;32866;50.160;14.768;2023-06-26T12:26:28;99148.22;;;34.33;41.99
46876;BME280;32866;50.160;14.768;2023-06-26T12:29:04;99141.13;;;34.01;36.29
46876;BME280;32866;50.160;14.768;2023-06-26T12:31:30;99140.03;;;33.53;38.19
46876;BME280;32866;50.160;14.768;2023-06-26T12:33:56;99132.75;;;33.50;42.12
46876;BME280;32866;50.160;14.768;2023-06-26T12:36:22;99138.13;;;32.64;40.13
46876;BME280;32866;50.160;14.768;2023-06-26T12:38:48;99131.38;;;31.71;41.26
46876;BME280;32866;50.160;14.768;2023-06-26T12:41:14;99130.22;;;31.10;43.75
46876;BME280;32866;50.160;14.768;2023-06-26T12:43:41;99120.28;;;31.09;46.27
46876;BME280;32866;50.160;14.768;2023-06-26T12:46:06;99118.31;;;32.25;42.62
46876;BME280;32866;50.160;14.768;2023-06-26T12:48:42;99123.13;;;32.92;42.85
46876;BME280;32866;50.160;14.768;2023-06-26T12:51:14;99120.59;;;32.87;40.53
46876;BME280;32866;50.160;14.768;2023-06-26T12:53:41;99115.31;;;33.44;39.07